UNEE/KEJ METAR and TAF weather

Enter ICAO airport designator
Station Type Date Time Source
UNEE METAR 2019/08/19 07:30 UTC NOAA

UNEE 190730Z 20003MPS 7000 SCT045 23/16 Q1015 R23/CLRD60 NOSIG RMK QFE738


Station Type Date Time Source
UNEE Decoded METAR 2019/08/19 07:30 UTC NOAA

Station name not available
Aug 19, 2019 - 03:30 AM EDT / 2019.08.19 0730 UTC
Wind: from the SSW (200 degrees) at 7 MPH (6 KT):0
Visibility: 4 mile(s):0
Sky conditions: partly cloudy
Temperature: 73 F (23 C)
Dew Point: 60 F (16 C)
Relative Humidity: 64%
Pressure (altimeter): 29.97 in. Hg (1015 hPa)
ob: UNEE 190730Z 20003MPS 7000 SCT045 23/16 Q1015 R23/CLRD60 NOSIG RMK QFE738
cycle: 7

Station Type Date Time Source
UNEE TAF 2019/08/19 06:22 UTC NOAA

TAF UNEE 190500Z 1906/2006 25003G08MPS 9999 BKN020CB
TEMPO 1906/1915 3100 -SHRA BKN011CB PROB40
TEMPO 1906/1915 -TSRA
BECMG 1916/1918 34003G08MPS

Example: see airport list